Time;durP1;ratioP1;P1;durP2;ratioP2;P2;SDS_P1;SDS_P2;PMS_P1;PMS_P2;Temp;Humidity;BMP_temperature;BMP_pressure;BME280_temperature;BME280_humidity;BME280_pressure;Samples;Min_cycle;Max_cycle;Signal;HPM_P1;HPM_P2
2022/07/19 04:46:01;;;;;;;20.43;18.73;;;19.10;99.90;;;;;;5587735;23;20511;-69
2022/07/19 04:48:28;;;;;;;21.27;17.60;;;19.60;99.90;;;;;;4973152;28;20482;-69
2022/07/19 04:50:54;;;;;;;19.03;17.50;;;20.00;99.90;;;;;;4973282;28;20443;-71
2022/07/19 04:53:21;;;;;;;19.33;17.33;;;20.30;99.90;;;;;;4973696;28;20463;-71
2022/07/19 04:55:48;;;;;;;19.60;18.10;;;20.80;99.90;;;;;;4973322;28;20470;-70
2022/07/19 04:58:15;;;;;;;19.83;18.53;;;21.00;99.90;;;;;;4973187;28;20444;-70
2022/07/19 05:00:41;;;;;;;19.17;17.70;;;21.20;99.90;;;;;;4972943;28;21040;-70
2022/07/19 05:03:09;;;;;;;19.37;18.07;;;21.50;99.90;;;;;;4973315;28;20507;-70
2022/07/19 05:05:36;;;;;;;18.13;16.70;;;21.70;99.90;;;;;;4973330;28;20466;-70
2022/07/19 05:08:03;;;;;;;18.50;16.60;;;21.70;99.90;;;;;;4973239;28;20459;-70
2022/07/19 05:10:29;;;;;;;17.57;16.57;;;21.90;99.90;;;;;;4972938;28;20937;-70
2022/07/19 05:12:56;;;;;;;16.63;15.70;;;22.20;99.90;;;;;;4972945;28;20859;-71
2022/07/19 05:15:23;;;;;;;19.07;17.97;;;22.60;99.20;;;;;;4972938;28;20468;-71
2022/07/19 05:17:49;;;;;;;18.17;17.07;;;22.90;98.50;;;;;;4973131;28;20456;-71
2022/07/19 05:20:17;;;;;;;17.97;17.00;;;22.90;98.60;;;;;;4972873;28;20487;-72
2022/07/19 05:22:44;;;;;;;19.30;17.97;;;23.20;97.90;;;;;;4972820;28;20451;-69
2022/07/19 05:25:11;;;;;;;18.33;17.03;;;23.40;97.60;;;;;;4972825;28;21559;-70
2022/07/19 05:27:38;;;;;;;17.60;16.60;;;23.70;96.70;;;;;;4972786;28;20459;-70
2022/07/19 05:30:06;;;;;;;21.07;16.87;;;23.90;95.70;;;;;;4970830;28;20448;-70
2022/07/19 05:32:33;;;;;;;17.17;15.87;;;24.00;95.20;;;;;;4972784;28;20464;-69
2022/07/19 05:35:00;;;;;;;18.23;16.80;;;24.00;95.10;;;;;;4972306;28;20456;-69
2022/07/19 05:37:28;;;;;;;17.37;16.17;;;24.10;94.80;;;;;;4972381;28;20551;-69
2022/07/19 05:39:54;;;;;;;16.53;15.50;;;24.20;94.40;;;;;;4972376;28;20503;-70
2022/07/19 05:42:21;;;;;;;17.00;15.90;;;24.30;94.30;;;;;;4972449;28;20514;-70
2022/07/19 05:44:48;;;;;;;18.40;16.93;;;24.40;94.00;;;;;;4970451;28;20476;-70
2022/07/19 05:47:15;;;;;;;15.77;14.97;;;24.20;94.10;;;;;;4972116;28;20863;-70
2022/07/19 05:49:42;;;;;;;18.20;16.37;;;24.40;93.90;;;;;;4972301;28;20459;-68
2022/07/19 05:52:09;;;;;;;15.23;14.33;;;24.30;93.50;;;;;;4970324;28;20448;-70
2022/07/19 05:54:37;;;;;;;16.47;15.23;;;24.20;93.70;;;;;;4972329;28;20459;-70
2022/07/19 05:57:04;;;;;;;16.37;15.37;;;24.50;93.20;;;;;;4972226;28;20790;-69
2022/07/19 05:59:31;;;;;;;16.07;15.00;;;24.80;92.60;;;;;;4971993;28;20490;-70
2022/07/19 06:01:57;;;;;;;17.63;16.40;;;25.10;91.70;;;;;;4971934;28;20459;-70
2022/07/19 06:04:24;;;;;;;17.60;16.17;;;25.30;90.80;;;;;;4971911;28;20817;-70
2022/07/19 06:06:50;;;;;;;17.77;16.27;;;25.60;90.20;;;;;;4971748;28;20849;-69
2022/07/19 06:09:17;;;;;;;17.30;16.07;;;25.60;90.20;;;;;;4972105;28;20936;-70
2022/07/19 06:11:45;;;;;;;17.70;16.07;;;25.60;89.60;;;;;;4972130;28;20460;-69
2022/07/19 06:14:12;;;;;;;16.23;14.87;;;25.70;89.20;;;;;;4971986;28;20502;-70
2022/07/19 06:16:40;;;;;;;16.60;15.40;;;25.90;88.30;;;;;;4971951;28;20902;-70
2022/07/19 06:19:07;;;;;;;21.87;16.77;;;25.90;88.20;;;;;;4971811;28;20491;-70
2022/07/19 06:21:34;;;;;;;15.97;15.27;;;26.20;87.10;;;;;;4971979;28;20458;-70
2022/07/19 06:24:01;;;;;;;19.20;17.70;;;26.60;85.10;;;;;;4971846;28;20463;-70
2022/07/19 06:26:27;;;;;;;16.87;15.67;;;26.50;84.30;;;;;;4971734;28;20878;-70
2022/07/19 06:28:56;;;;;;;18.23;16.77;;;26.50;83.60;;;;;;4971607;28;20455;-70
2022/07/19 06:31:23;;;;;;;17.33;16.13;;;26.80;82.60;;;;;;4971875;28;20457;-71
2022/07/19 06:33:51;;;;;;;16.10;14.83;;;27.30;80.80;;;;;;4971882;28;20452;-71
2022/07/19 06:36:19;;;;;;;17.27;15.87;;;27.90;79.30;;;;;;4971600;28;20788;-71
2022/07/19 06:38:47;;;;;;;16.03;15.03;;;28.10;77.10;;;;;;4971567;28;20479;-71
2022/07/19 06:41:14;;;;;;;18.23;16.43;;;28.30;77.20;;;;;;4971372;28;20487;-72
2022/07/19 06:43:41;;;;;;;17.23;15.83;;;28.40;76.70;;;;;;4971356;28;20462;-69
2022/07/19 06:46:09;;;;;;;17.70;16.00;;;28.50;75.00;;;;;;4970308;28;20475;-70
2022/07/19 06:48:36;;;;;;;18.10;17.00;;;28.60;74.50;;;;;;4970700;28;20523;-71
2022/07/19 06:51:03;;;;;;;16.97;16.10;;;28.90;74.00;;;;;;4970832;28;20444;-71
2022/07/19 06:53:30;;;;;;;16.17;15.07;;;29.30;72.80;;;;;;4973226;28;20474;-71
2022/07/19 06:55:57;;;;;;;16.70;15.90;;;29.40;71.00;;;;;;4982474;28;20891;-71
2022/07/19 06:58:23;;;;;;;17.27;16.13;;;29.70;70.50;;;;;;4977107;28;20456;-71
2022/07/19 07:00:51;;;;;;;16.63;15.73;;;30.20;69.50;;;;;;4971278;28;20875;-71
2022/07/19 07:03:19;;;;;;;16.93;15.77;;;30.60;67.70;;;;;;4989633;28;20455;-71
2022/07/19 07:05:46;;;;;;;18.37;17.03;;;30.70;66.40;;;;;;4989850;28;20457;-70
2022/07/19 07:08:13;;;;;;;16.20;15.20;;;31.10;64.90;;;;;;4990516;28;20454;-71
2022/07/19 07:10:40;;;;;;;18.00;16.67;;;31.60;62.90;;;;;;4981054;28;20450;-68
2022/07/19 07:13:06;;;;;;;17.37;15.97;;;31.90;61.80;;;;;;4969393;28;20491;-70
2022/07/19 07:15:33;;;;;;;17.20;16.30;;;32.00;60.40;;;;;;4969561;28;20448;-70
2022/07/19 07:18:00;;;;;;;17.20;16.40;;;32.10;60.10;;;;;;4970947;28;20451;-71
2022/07/19 07:20:28;;;;;;;17.60;16.50;;;32.40;58.90;;;;;;4970710;28;20853;-71
2022/07/19 07:22:55;;;;;;;16.33;15.20;;;32.70;58.90;;;;;;4970798;28;20460;-71
2022/07/19 07:25:22;;;;;;;17.90;16.70;;;33.00;57.80;;;;;;4971049;28;20451;-70
2022/07/19 07:27:49;;;;;;;18.47;17.00;;;33.30;57.20;;;;;;4970952;28;20452;-70
2022/07/19 07:30:15;;;;;;;17.43;16.47;;;33.60;56.60;;;;;;4970533;28;20817;-71
2022/07/19 07:32:42;;;;;;;18.70;17.60;;;34.10;56.00;;;;;;4968061;28;20460;-71
2022/07/19 07:35:09;;;;;;;18.10;16.90;;;34.70;53.00;;;;;;4969589;28;20809;-72
2022/07/19 07:37:37;;;;;;;18.50;17.40;;;34.90;52.80;;;;;;4970790;28;20459;-72
2022/07/19 07:40:05;;;;;;;17.97;16.97;;;35.60;51.10;;;;;;4970477;28;20499;-72
2022/07/19 07:42:32;;;;;;;20.90;19.53;;;36.00;49.80;;;;;;4968614;28;20460;-70
2022/07/19 07:45:00;;;;;;;19.87;18.03;;;36.40;49.00;;;;;;4970172;28;20478;-72
2022/07/19 07:47:27;;;;;;;20.10;19.00;;;36.80;48.40;;;;;;4951041;29;20540;-70
2022/07/19 07:49:54;;;;;;;20.00;18.70;;;36.70;47.50;;;;;;4950892;29;20445;-72
2022/07/19 07:52:21;;;;;;;20.13;18.93;;;36.70;46.80;;;;;;4951028;29;20951;-72
2022/07/19 07:54:50;;;;;;;18.20;17.17;;;37.00;46.10;;;;;;4951009;28;20451;-71
2022/07/19 07:57:16;;;;;;;18.63;17.63;;;37.00;45.30;;;;;;4950762;29;20947;-71
2022/07/19 07:59:43;;;;;;;19.57;18.10;;;37.30;43.90;;;;;;4950677;29;20837;-71
2022/07/19 08:02:10;;;;;;;19.97;18.27;;;37.70;43.90;;;;;;4950909;29;20814;-71
2022/07/19 08:04:36;;;;;;;19.70;18.70;;;38.20;42.20;;;;;;4951225;29;20870;-71
2022/07/19 08:07:03;;;;;;;19.00;18.07;;;38.10;41.90;;;;;;4950943;29;20822;-71
2022/07/19 08:09:30;;;;;;;17.43;16.63;;;38.20;41.20;;;;;;4950782;29;20507;-71
2022/07/19 08:11:58;;;;;;;18.00;17.10;;;37.50;41.70;;;;;;4950818;29;20527;-72
2022/07/19 08:14:25;;;;;;;20.30;18.83;;;37.70;41.40;;;;;;4950583;29;20448;-71
2022/07/19 08:16:52;;;;;;;17.50;16.60;;;38.00;40.90;;;;;;4951890;28;20468;-71
2022/07/19 08:19:18;;;;;;;17.53;16.73;;;37.90;40.50;;;;;;4954358;28;20456;-71
2022/07/19 08:21:45;;;;;;;17.30;16.40;;;38.20;40.00;;;;;;4953794;29;20488;-71
2022/07/19 08:24:12;;;;;;;18.10;17.10;;;38.50;38.70;;;;;;4953978;29;20586;-71
2022/07/19 08:26:38;;;;;;;17.57;16.57;;;38.90;37.80;;;;;;4954053;29;20982;-71
2022/07/19 08:29:07;;;;;;;17.80;17.10;;;38.70;38.10;;;;;;4954175;29;20790;-71
2022/07/19 08:31:34;;;;;;;17.77;16.80;;;38.40;38.00;;;;;;4954096;29;20556;-71
2022/07/19 08:34:00;;;;;;;17.87;16.87;;;38.40;37.40;;;;;;4953911;28;20825;-71
2022/07/19 08:36:27;;;;;;;18.57;17.70;;;38.40;36.70;;;;;;4953768;29;20884;-71
2022/07/19 08:38:54;;;;;;;18.03;17.13;;;38.60;36.20;;;;;;4951930;29;20839;-71
2022/07/19 08:41:21;;;;;;;18.20;16.87;;;38.80;35.80;;;;;;4954088;29;20912;-71
2022/07/19 08:43:49;;;;;;;17.23;16.07;;;38.80;36.40;;;;;;4953794;29;20457;-71
2022/07/19 08:46:20;;;;;;;16.20;15.60;;;38.80;34.80;;;;;;4963050;28;21011;-71
2022/07/19 08:48:48;;;;;;;16.93;16.23;;;38.40;34.50;;;;;;4973008;28;20542;-71
2022/07/19 08:51:19;;;;;;;16.23;15.63;;;38.20;34.70;;;;;;4972832;28;20443;-71
2022/07/19 08:53:46;;;;;;;17.43;16.70;;;38.30;33.70;;;;;;4970847;28;20491;-71
2022/07/19 08:58:57;;;;;;;16.30;15.57;;;37.70;34.80;;;;;;4972662;28;20956;-72
2022/07/19 09:01:25;;;;;;;16.33;15.53;;;37.20;34.20;;;;;;4972483;28;20898;-71
2022/07/19 09:04:20;;;;;;;17.47;16.60;;;36.20;33.70;;;;;;4972655;28;20467;-71
2022/07/19 09:06:49;;;;;;;16.67;15.80;;;36.50;35.30;;;;;;4938350;28;20491;-71
2022/07/19 09:09:20;;;;;;;16.90;15.67;;;36.90;34.50;;;;;;4972387;28;20538;-71
2022/07/19 09:11:50;;;;;;;16.40;15.70;;;35.80;33.50;;;;;;4972418;28;20454;-71
2022/07/19 09:14:19;;;;;;;17.70;16.70;;;35.60;34.40;;;;;;4972368;28;20444;-72
2022/07/19 09:16:57;;;;;;;16.17;15.53;;;35.80;33.60;;;;;;4972227;28;20950;-71
2022/07/19 09:19:26;;;;;;;17.67;16.90;;;36.20;34.10;;;;;;4972290;28;20902;-71
2022/07/19 09:21:55;;;;;;;16.37;15.70;;;36.30;33.50;;;;;;4972412;28;20502;-71
2022/07/19 09:24:22;;;;;;;17.30;16.60;;;36.50;33.40;;;;;;4972521;28;20460;-72
2022/07/19 09:26:56;;;;;;;17.20;16.40;;;36.20;33.60;;;;;;4972115;28;20451;-71
2022/07/19 09:29:23;;;;;;;16.57;15.97;;;36.30;33.90;;;;;;4972049;28;20451;-71
2022/07/19 09:32:02;;;;;;;16.20;15.30;;;36.10;33.30;;;;;;4972466;28;20462;-71
2022/07/19 09:34:30;;;;;;;16.77;16.10;;;35.50;33.90;;;;;;4972079;28;20462;-71
2022/07/19 09:37:18;;;;;;;16.43;15.83;;;35.20;33.90;;;;;;4972056;28;20708;-72
2022/07/19 09:39:46;;;;;;;16.63;15.93;;;35.50;34.40;;;;;;4971864;28;20832;-71
2022/07/19 09:42:14;;;;;;;16.47;15.73;;;35.50;34.10;;;;;;4971729;28;20950;-71
2022/07/19 09:44:41;;;;;;;15.83;15.00;;;35.70;33.90;;;;;;4971716;28;20849;-71
2022/07/19 09:47:09;;;;;;;17.87;17.17;;;36.30;34.20;;;;;;4971852;28;20483;-71
2022/07/19 09:49:36;;;;;;;16.20;15.50;;;36.80;32.50;;;;;;4971991;28;20542;-71
2022/07/19 09:52:03;;;;;;;17.43;16.73;;;36.60;32.70;;;;;;4971759;28;20447;-71
2022/07/19 09:54:31;;;;;;;17.60;16.33;;;36.60;33.10;;;;;;4971669;28;20462;-71
2022/07/19 09:57:01;;;;;;;18.03;17.27;;;37.00;32.70;;;;;;4971590;28;21070;-71
2022/07/19 09:59:28;;;;;;;16.60;15.87;;;36.80;31.60;;;;;;4971566;28;20491;-71
2022/07/19 10:01:57;;;;;;;16.93;16.10;;;36.60;31.80;;;;;;4971370;28;20578;-71
2022/07/19 10:04:27;;;;;;;18.00;17.10;;;36.50;32.10;;;;;;4971490;28;20491;-70
2022/07/19 10:06:54;;;;;;;18.80;18.00;;;36.30;32.10;;;;;;4971551;28;20880;-71
2022/07/19 10:09:22;;;;;;;17.73;17.03;;;36.70;31.80;;;;;;4971496;28;20459;-71
2022/07/19 10:11:49;;;;;;;18.90;17.80;;;36.90;31.50;;;;;;4971531;28;20522;-72
2022/07/19 10:14:16;;;;;;;17.53;16.63;;;37.20;32.20;;;;;;4970973;28;20514;-72
2022/07/19 10:16:51;;;;;;;18.00;17.20;;;37.20;31.30;;;;;;4970968;28;20483;-71
2022/07/19 10:19:20;;;;;;;18.63;17.43;;;37.30;32.00;;;;;;4971345;28;20459;-71
2022/07/19 10:21:50;;;;;;;17.67;16.97;;;37.10;31.50;;;;;;4971164;28;20498;-71
2022/07/19 10:24:59;;;;;;;19.77;18.77;;;37.60;31.40;;;;;;4970981;28;20478;-72
2022/07/19 10:27:40;;;;;;;19.23;18.53;;;38.20;29.50;;;;;;4970941;28;20467;-71
2022/07/19 10:30:23;;;;;;;17.57;16.87;;;37.90;29.90;;;;;;4970804;28;20448;-72
2022/07/19 10:32:51;;;;;;;18.43;17.33;;;37.70;30.30;;;;;;4970823;28;20456;-71
2022/07/19 10:35:19;;;;;;;16.60;15.87;;;38.00;30.40;;;;;;4970742;28;20929;-71
2022/07/19 10:37:49;;;;;;;18.23;17.23;;;37.80;29.70;;;;;;4970953;28;20814;-71
2022/07/19 10:40:36;;;;;;;17.70;17.00;;;38.10;29.70;;;;;;4970077;28;20458;-71
2022/07/19 10:43:07;;;;;;;18.13;16.90;;;37.60;29.60;;;;;;4971084;28;20455;-71
2022/07/19 10:45:34;;;;;;;17.33;16.63;;;37.20;29.90;;;;;;4970817;28;20487;-71
2022/07/19 10:48:10;;;;;;;17.33;16.73;;;37.40;30.30;;;;;;4970680;28;20518;-72
2022/07/19 10:50:44;;;;;;;17.97;17.17;;;37.90;30.30;;;;;;4971240;28;20458;-72
2022/07/19 10:53:56;;;;;;;15.87;15.27;;;37.90;30.10;;;;;;4970741;28;20893;-71
2022/07/19 10:56:27;;;;;;;18.60;17.70;;;38.00;30.00;;;;;;4970862;28;20455;-71
2022/07/19 10:58:55;;;;;;;18.40;17.60;;;37.90;30.00;;;;;;4970710;28;21016;-71
2022/07/19 11:01:23;;;;;;;19.43;18.63;;;37.80;29.90;;;;;;4970936;28;20495;-71
2022/07/19 11:03:51;;;;;;;18.83;17.87;;;38.10;29.70;;;;;;4969192;28;20947;-71
2022/07/19 11:06:23;;;;;;;17.03;16.33;;;38.70;29.20;;;;;;4970899;28;20467;-71
2022/07/19 11:08:54;;;;;;;18.37;17.30;;;37.50;29.10;;;;;;4970966;28;20451;-71
2022/07/19 11:11:21;;;;;;;17.00;16.30;;;36.70;29.90;;;;;;4970995;28;20471;-71
2022/07/19 11:13:51;;;;;;;17.40;16.70;;;37.10;29.90;;;;;;4970959;28;20451;-72
2022/07/19 11:16:18;;;;;;;19.13;18.33;;;37.60;29.30;;;;;;4970792;28;20510;-71
2022/07/19 11:18:45;;;;;;;17.57;16.43;;;37.80;28.70;;;;;;4970504;28;20458;-71
2022/07/19 11:21:13;;;;;;;16.90;16.30;;;37.50;28.90;;;;;;4970335;28;20487;-76
2022/07/19 11:23:41;;;;;;;17.00;16.30;;;37.40;28.90;;;;;;4970344;28;20474;-71
2022/07/19 11:26:10;;;;;;;18.47;17.77;;;37.20;29.60;;;;;;4970402;28;20463;-71
2022/07/19 11:28:38;;;;;;;19.00;17.83;;;37.20;29.30;;;;;;4970495;28;20914;-71
2022/07/19 11:31:17;;;;;;;18.47;17.77;;;37.60;29.90;;;;;;4970649;28;20458;-70
2022/07/19 11:33:45;;;;;;;18.10;17.30;;;37.70;29.50;;;;;;4968390;28;20458;-71
2022/07/19 11:36:13;;;;;;;18.07;16.67;;;38.20;29.20;;;;;;4970430;28;20467;-71
2022/07/19 11:38:41;;;;;;;17.43;16.50;;;38.50;28.80;;;;;;4970423;28;20492;-72
2022/07/19 11:41:17;;;;;;;18.53;17.80;;;38.50;28.30;;;;;;4970396;28;20515;-71
2022/07/19 11:43:44;;;;;;;17.20;16.50;;;38.30;28.70;;;;;;4970220;28;20643;-71
2022/07/19 11:46:10;;;;;;;17.80;16.93;;;38.10;29.80;;;;;;4970072;28;20527;-71
2022/07/19 11:48:38;;;;;;;17.97;16.93;;;38.30;28.80;;;;;;4970504;28;20447;-71
2022/07/19 11:51:08;;;;;;;17.80;16.90;;;38.90;28.40;;;;;;4972009;28;20454;-71
2022/07/19 11:53:36;;;;;;;17.53;16.60;;;39.50;28.20;;;;;;4974233;28;21032;-71
2022/07/19 11:56:05;;;;;;;18.00;17.00;;;40.10;27.70;;;;;;4972231;28;20551;-71
2022/07/19 11:58:32;;;;;;;16.90;16.00;;;39.30;27.80;;;;;;4973381;28;20942;-71
2022/07/19 12:01:04;;;;;;;18.40;17.50;;;39.10;28.20;;;;;;4973702;28;20521;-71
2022/07/19 12:03:31;;;;;;;17.30;16.50;;;39.30;28.40;;;;;;4973572;28;20992;-71
2022/07/19 12:06:02;;;;;;;18.13;17.23;;;39.90;28.20;;;;;;4971754;28;20953;-71
2022/07/19 12:08:40;;;;;;;18.20;17.20;;;39.50;28.00;;;;;;4973709;28;20649;-70
2022/07/19 12:11:22;;;;;;;17.90;16.90;;;39.10;28.10;;;;;;4973822;28;20447;-71
2022/07/19 12:13:50;;;;;;;17.60;16.50;;;38.60;28.80;;;;;;4972141;28;20502;-71
2022/07/19 12:16:17;;;;;;;17.43;16.50;;;38.60;28.90;;;;;;4973559;28;20444;-71
2022/07/19 12:18:46;;;;;;;16.97;16.27;;;38.60;28.80;;;;;;4971788;28;20455;-70
2022/07/19 12:21:23;;;;;;;16.80;15.93;;;38.10;29.00;;;;;;4973405;28;20821;-71
2022/07/19 12:24:20;;;;;;;18.30;16.87;;;38.40;28.70;;;;;;4973648;28;20455;-71
2022/07/19 12:26:58;;;;;;;17.63;16.83;;;38.80;28.60;;;;;;4973486;28;20451;-71
2022/07/19 12:29:28;;;;;;;17.10;16.30;;;38.50;28.50;;;;;;4973206;28;20447;-71
2022/07/19 12:31:57;;;;;;;17.10;16.40;;;38.50;29.00;;;;;;4973234;28;20815;-70
2022/07/19 12:34:24;;;;;;;18.13;17.33;;;38.50;29.10;;;;;;4972681;28;20460;-71
2022/07/19 12:36:52;;;;;;;17.90;17.00;;;38.00;29.50;;;;;;4973386;28;20456;-71
2022/07/19 12:39:22;;;;;;;18.83;18.03;;;38.30;29.20;;;;;;4973289;28;20452;-71
2022/07/19 12:42:04;;;;;;;18.60;17.53;;;39.00;28.80;;;;;;4973207;28;20495;-71
2022/07/19 12:44:31;;;;;;;18.23;17.33;;;39.10;28.70;;;;;;4972846;28;20471;-72
2022/07/19 12:46:59;;;;;;;18.13;17.23;;;38.80;28.90;;;;;;4972803;28;20480;-71
2022/07/19 12:49:26;;;;;;;18.73;17.77;;;39.20;28.80;;;;;;4972930;28;20487;-72
2022/07/19 12:51:54;;;;;;;16.87;15.97;;;39.20;28.80;;;;;;4973074;28;20813;-71
2022/07/19 12:54:20;;;;;;;16.97;16.27;;;38.90;28.20;;;;;;4973167;28;20458;-72
2022/07/19 12:56:47;;;;;;;18.40;17.37;;;39.20;28.60;;;;;;4973157;28;20470;-71
2022/07/19 13:01:58;;;;;;;18.40;17.40;;;39.10;28.70;;;;;;4971828;28;20618;-71
2022/07/19 13:04:25;;;;;;;17.50;16.50;;;38.50;28.60;;;;;;4972542;28;20477;-71
2022/07/19 13:06:51;;;;;;;18.37;17.17;;;37.80;28.90;;;;;;4971075;28;20821;-71
2022/07/19 13:09:19;;;;;;;17.73;16.93;;;37.80;29.40;;;;;;4972628;28;20463;-71
2022/07/19 13:11:46;;;;;;;18.00;17.10;;;37.80;29.60;;;;;;4972475;28;20843;-71
2022/07/19 13:14:13;;;;;;;18.07;16.97;;;38.20;29.70;;;;;;4972574;28;20462;-71
2022/07/19 13:16:40;;;;;;;19.00;17.90;;;39.10;29.20;;;;;;4972375;28;20463;-71
2022/07/19 13:19:07;;;;;;;18.63;17.37;;;39.10;28.90;;;;;;4972546;28;20824;-71
2022/07/19 13:21:35;;;;;;;18.40;17.50;;;39.20;28.80;;;;;;4972669;28;20499;-71
2022/07/19 13:24:02;;;;;;;17.30;16.40;;;39.90;28.30;;;;;;4972240;28;20514;-71
2022/07/19 13:26:30;;;;;;;19.87;18.67;;;40.80;28.10;;;;;;4972436;28;20883;-71
2022/07/19 13:28:57;;;;;;;19.67;18.70;;;40.80;27.50;;;;;;4972126;28;20710;-71
2022/07/19 13:31:23;;;;;;;18.03;16.90;;;40.20;27.90;;;;;;4972280;28;20454;-71
2022/07/19 13:33:50;;;;;;;18.23;17.43;;;40.10;27.70;;;;;;4971902;28;20467;-71
2022/07/19 13:36:17;;;;;;;18.70;17.90;;;39.40;27.40;;;;;;4972153;28;20504;-71
2022/07/19 13:38:44;;;;;;;17.73;17.03;;;39.20;27.60;;;;;;4972019;28;20907;-71
2022/07/19 13:41:11;;;;;;;18.73;17.53;;;39.40;27.80;;;;;;4971844;28;20452;-71
2022/07/19 13:43:39;;;;;;;19.07;17.47;;;39.70;27.70;;;;;;4972015;28;20459;-71
2022/07/19 13:46:06;;;;;;;17.87;17.07;;;39.30;27.80;;;;;;4972021;28;20492;-71
2022/07/19 13:48:32;;;;;;;17.87;16.90;;;38.70;28.00;;;;;;4971921;28;20454;-71
2022/07/19 13:50:59;;;;;;;16.87;16.17;;;38.60;28.20;;;;;;4971604;28;20463;-71
2022/07/19 13:53:26;;;;;;;16.63;15.73;;;38.40;28.90;;;;;;4971675;28;20444;-70
2022/07/19 13:55:52;;;;;;;17.40;16.73;;;38.40;28.90;;;;;;4971932;28;20451;-71
2022/07/19 13:58:19;;;;;;;19.03;17.70;;;38.60;28.70;;;;;;4971773;28;20458;-71
2022/07/19 14:00:48;;;;;;;16.80;16.20;;;38.80;28.40;;;;;;4971442;28;20463;-71
2022/07/19 14:03:17;;;;;;;17.63;16.90;;;38.30;28.30;;;;;;4971395;28;20495;-71
2022/07/19 14:05:43;;;;;;;17.47;16.77;;;38.20;28.60;;;;;;4971483;28;20451;-71
2022/07/19 14:08:10;;;;;;;18.43;17.37;;;38.60;28.70;;;;;;4971333;28;20459;-71
2022/07/19 14:10:38;;;;;;;16.43;15.77;;;38.90;28.30;;;;;;4971528;28;20460;-71
2022/07/19 14:13:05;;;;;;;17.80;16.83;;;38.90;28.30;;;;;;4971496;28;20452;-71
2022/07/19 14:15:32;;;;;;;17.90;17.00;;;38.40;28.30;;;;;;4971594;28;20456;-71
2022/07/19 14:18:00;;;;;;;18.03;16.70;;;38.10;28.80;;;;;;4971518;28;20459;-71
2022/07/19 14:20:27;;;;;;;17.60;16.90;;;38.00;29.10;;;;;;4971274;28;20945;-71
2022/07/19 14:22:54;;;;;;;15.93;15.13;;;38.40;28.30;;;;;;4971133;28;20513;-71
2022/07/19 14:25:22;;;;;;;18.10;17.20;;;38.30;27.60;;;;;;4971380;28;21058;-71
2022/07/19 14:27:49;;;;;;;17.77;16.97;;;38.50;27.60;;;;;;4971301;28;20455;-70
2022/07/19 14:30:16;;;;;;;18.93;17.90;;;38.80;28.10;;;;;;4971096;28;20452;-71
2022/07/19 14:32:43;;;;;;;18.40;17.43;;;39.40;27.90;;;;;;4971082;28;20467;-71
2022/07/19 14:35:11;;;;;;;17.10;16.50;;;40.00;27.50;;;;;;4970986;28;20510;-71
2022/07/19 14:37:38;;;;;;;16.90;16.20;;;40.20;27.50;;;;;;4971192;28;20460;-70
2022/07/19 14:40:06;;;;;;;18.97;17.80;;;39.80;27.10;;;;;;4971443;28;20847;-70
2022/07/19 14:42:33;;;;;;;17.77;16.97;;;39.90;26.90;;;;;;4970930;28;21077;-69
2022/07/19 14:44:59;;;;;;;16.70;15.90;;;39.60;27.00;;;;;;4970787;28;20482;-70
2022/07/19 14:47:26;;;;;;;17.20;16.40;;;39.40;27.30;;;;;;4970692;28;20498;-71
2022/07/19 14:49:53;;;;;;;17.83;16.77;;;39.00;27.10;;;;;;4970927;28;20452;-71
2022/07/19 14:52:21;;;;;;;17.33;16.53;;;38.10;27.00;;;;;;4971069;28;20455;-70
2022/07/19 14:54:47;;;;;;;17.10;16.40;;;37.90;27.40;;;;;;4971008;28;20451;-70
2022/07/19 14:57:14;;;;;;;18.37;17.27;;;37.80;27.60;;;;;;4970782;28;20456;-70
2022/07/19 14:59:41;;;;;;;17.47;16.57;;;37.30;27.90;;;;;;4970756;28;20448;-70
2022/07/19 15:02:08;;;;;;;16.30;15.53;;;37.20;28.10;;;;;;4970787;28;20498;-70
2022/07/19 15:04:35;;;;;;;17.17;15.90;;;36.90;28.20;;;;;;4970930;28;20483;-71
2022/07/19 15:07:02;;;;;;;17.33;16.60;;;36.80;28.20;;;;;;4970685;28;20510;-71
2022/07/19 15:09:30;;;;;;;16.87;16.27;;;36.80;28.40;;;;;;4970526;28;20463;-71
2022/07/19 15:11:59;;;;;;;16.83;16.03;;;36.70;28.70;;;;;;4970571;28;20785;-71
2022/07/19 15:14:28;;;;;;;18.70;16.97;;;36.20;28.60;;;;;;4970413;28;20558;-71
2022/07/19 15:16:54;;;;;;;16.17;15.47;;;35.90;29.20;;;;;;4970314;28;20684;-71
2022/07/19 15:19:21;;;;;;;17.17;16.47;;;35.60;29.30;;;;;;4969369;28;20456;-71
2022/07/19 15:21:48;;;;;;;17.67;16.40;;;35.50;29.10;;;;;;4970414;28;20458;-70
2022/07/19 15:24:15;;;;;;;16.87;16.07;;;35.50;29.60;;;;;;4968973;28;20456;-71
2022/07/19 15:26:43;;;;;;;16.67;16.00;;;35.40;29.20;;;;;;4973162;28;20447;-71
2022/07/19 15:29:10;;;;;;;17.03;16.13;;;35.30;29.20;;;;;;4974230;28;20466;-71
2022/07/19 15:31:36;;;;;;;19.33;18.17;;;35.30;29.60;;;;;;4974869;28;20941;-71
2022/07/19 15:34:03;;;;;;;17.37;16.30;;;35.40;29.50;;;;;;4974191;28;20784;-71
2022/07/19 15:36:31;;;;;;;16.40;15.53;;;35.30;29.40;;;;;;4974115;28;20459;-71
2022/07/19 15:38:57;;;;;;;15.73;15.13;;;35.10;29.30;;;;;;4974281;28;20550;-71
2022/07/19 15:41:24;;;;;;;17.00;16.20;;;35.10;29.50;;;;;;4974215;28;20455;-71
2022/07/19 15:43:52;;;;;;;17.20;16.40;;;35.10;29.60;;;;;;4974177;28;20498;-71
2022/07/19 15:46:19;;;;;;;16.60;16.00;;;35.10;29.60;;;;;;4974090;28;20541;-71
2022/07/19 15:48:46;;;;;;;17.20;16.37;;;35.20;29.80;;;;;;4973644;28;20447;-71
2022/07/19 15:51:13;;;;;;;15.77;15.00;;;35.20;29.50;;;;;;4974051;28;20459;-71
2022/07/19 15:53:40;;;;;;;16.57;15.67;;;35.20;29.90;;;;;;4973653;28;20451;-71
2022/07/19 15:56:07;;;;;;;16.77;15.80;;;35.30;29.60;;;;;;4974206;28;20466;-71
2022/07/19 15:58:34;;;;;;;18.83;17.63;;;35.30;29.50;;;;;;4973527;28;20865;-71
2022/07/19 16:01:02;;;;;;;15.87;15.17;;;35.20;29.50;;;;;;4973876;28;20458;-70
2022/07/19 16:03:28;;;;;;;16.10;15.40;;;35.20;29.40;;;;;;4973326;28;20487;-70
2022/07/19 16:05:55;;;;;;;17.00;16.10;;;35.20;29.20;;;;;;4973942;28;20479;-70
2022/07/19 16:08:22;;;;;;;16.10;15.40;;;35.10;29.20;;;;;;4973562;28;20538;-71
2022/07/19 16:10:49;;;;;;;16.47;15.67;;;35.00;29.00;;;;;;4973887;28;20802;-70
2022/07/19 16:13:16;;;;;;;14.83;14.03;;;35.10;29.50;;;;;;4973269;28;20451;-70
2022/07/19 16:15:42;;;;;;;14.87;14.03;;;35.10;29.20;;;;;;4973510;28;20455;-70
2022/07/19 16:18:10;;;;;;;15.77;14.93;;;35.10;29.20;;;;;;4973287;28;20491;-70
2022/07/19 16:20:37;;;;;;;15.30;14.60;;;35.20;29.30;;;;;;4973110;28;20452;-70
2022/07/19 16:23:05;;;;;;;13.97;13.20;;;35.20;29.30;;;;;;4972927;28;20499;-70
2022/07/19 16:25:32;;;;;;;14.97;14.27;;;35.20;29.30;;;;;;4972670;28;20539;-70
2022/07/19 16:27:58;;;;;;;16.73;15.57;;;35.10;29.40;;;;;;4972787;28;20824;-70
2022/07/19 16:30:25;;;;;;;14.57;13.90;;;35.10;29.10;;;;;;4972952;28;20526;-70
2022/07/19 16:32:52;;;;;;;14.80;14.10;;;35.10;29.20;;;;;;4972959;28;20444;-70
2022/07/19 16:35:20;;;;;;;15.60;14.50;;;35.10;29.20;;;;;;4973161;28;20444;-71
2022/07/19 16:37:47;;;;;;;15.43;14.83;;;35.10;29.20;;;;;;4971393;28;20810;-70
2022/07/19 16:40:14;;;;;;;15.70;15.00;;;35.00;29.20;;;;;;4972525;28;20903;-70
2022/07/19 16:42:41;;;;;;;16.17;15.27;;;35.00;29.50;;;;;;4972281;28;20495;-71
2022/07/19 16:45:09;;;;;;;15.27;14.63;;;35.00;29.50;;;;;;4972410;28;20468;-71
2022/07/19 16:47:37;;;;;;;16.70;15.70;;;34.90;29.50;;;;;;4972574;28;20852;-71
2022/07/19 16:50:05;;;;;;;17.57;16.07;;;34.90;29.70;;;;;;4972514;28;20467;-71
2022/07/19 16:52:33;;;;;;;17.27;16.27;;;34.90;29.60;;;;;;4972553;28;20466;-71
2022/07/19 16:55:00;;;;;;;15.80;14.90;;;34.80;29.90;;;;;;4972307;28;20451;-70
2022/07/19 16:57:26;;;;;;;17.17;16.27;;;34.80;29.70;;;;;;4972162;28;20728;-71
2022/07/19 16:59:53;;;;;;;16.30;15.63;;;34.70;29.40;;;;;;4972440;28;20817;-70
2022/07/19 17:02:20;;;;;;;16.23;15.13;;;34.80;29.80;;;;;;4972319;28;20459;-70
2022/07/19 17:04:46;;;;;;;15.63;15.03;;;34.80;29.80;;;;;;4972335;28;20452;-70
2022/07/19 17:07:13;;;;;;;17.10;16.00;;;34.70;29.80;;;;;;4972037;28;20467;-70
2022/07/19 17:09:41;;;;;;;15.70;14.90;;;34.70;30.00;;;;;;4972304;28;20452;-71
2022/07/19 17:12:08;;;;;;;15.20;14.50;;;34.80;29.80;;;;;;4972116;28;20942;-71
2022/07/19 17:14:35;;;;;;;15.90;15.20;;;34.70;29.70;;;;;;4971730;28;20447;-71
2022/07/19 17:17:01;;;;;;;15.00;14.40;;;34.70;30.00;;;;;;4971782;28;20957;-71
2022/07/19 17:19:28;;;;;;;15.63;14.73;;;34.70;29.90;;;;;;4971679;28;20456;-71
2022/07/19 17:21:55;;;;;;;16.20;15.40;;;34.60;29.90;;;;;;4971713;28;20459;-71
2022/07/19 17:24:22;;;;;;;16.50;15.60;;;34.60;30.00;;;;;;4971580;28;20867;-71